sensor_id;sensor_type;location;lat;lon;timestamp;pressure;altitude;pressure_sealevel;temperature;humidity
48077;BME280;33854;57.708;12.008;2023-02-10T00:02:21;99118.66;;;3.31;100.00
48077;BME280;33854;57.708;12.008;2023-02-10T00:04:46;99166.75;;;3.32;100.00
48077;BME280;33854;57.708;12.008;2023-02-10T00:07:12;99187.50;;;3.29;100.00
48077;BME280;33854;57.708;12.008;2023-02-10T00:09:37;99246.69;;;3.32;100.00
48077;BME280;33854;57.708;12.008;2023-02-10T00:12:03;99271.00;;;3.25;100.00
48077;BME280;33854;57.708;12.008;2023-02-10T00:14:29;99306.03;;;3.31;100.00
48077;BME280;33854;57.708;12.008;2023-02-10T00:16:56;99327.63;;;3.28;100.00
48077;BME280;33854;57.708;12.008;2023-02-10T00:19:24;99284.09;;;3.21;100.00
48077;BME280;33854;57.708;12.008;2023-02-10T00:21:50;99256.59;;;3.21;100.00
48077;BME280;33854;57.708;12.008;2023-02-10T00:24:16;99252.31;;;3.20;100.00
48077;BME280;33854;57.708;12.008;2023-02-10T00:26:41;99260.81;;;3.22;100.00
48077;BME280;33854;57.708;12.008;2023-02-10T00:29:07;99241.03;;;3.23;100.00
48077;BME280;33854;57.708;12.008;2023-02-10T00:31:32;99211.19;;;3.17;100.00
48077;BME280;33854;57.708;12.008;2023-02-10T00:33:58;99154.47;;;3.17;100.00
48077;BME280;33854;57.708;12.008;2023-02-10T00:36:23;99090.66;;;3.22;100.00
48077;BME280;33854;57.708;12.008;2023-02-10T00:38:50;99031.38;;;3.22;100.00
48077;BME280;33854;57.708;12.008;2023-02-10T00:41:18;98988.41;;;3.23;100.00
48077;BME280;33854;57.708;12.008;2023-02-10T00:43:44;98960.31;;;3.17;100.00
48077;BME280;33854;57.708;12.008;2023-02-10T00:46:11;98927.50;;;3.20;100.00
48077;BME280;33854;57.708;12.008;2023-02-10T00:48:37;98910.34;;;3.19;100.00
48077;BME280;33854;57.708;12.008;2023-02-10T00:51:03;98916.44;;;3.18;100.00
48077;BME280;33854;57.708;12.008;2023-02-10T00:53:30;98935.44;;;3.16;100.00
48077;BME280;33854;57.708;12.008;2023-02-10T00:55:56;98889.88;;;3.16;100.00
48077;BME280;33854;57.708;12.008;2023-02-10T00:58:21;98857.44;;;3.12;100.00
48077;BME280;33854;57.708;12.008;2023-02-10T01:00:47;98804.06;;;3.14;100.00
48077;BME280;33854;57.708;12.008;2023-02-10T01:03:13;98738.19;;;3.09;100.00
48077;BME280;33854;57.708;12.008;2023-02-10T01:05:38;98405.75;;;3.09;100.00
48077;BME280;33854;57.708;12.008;2023-02-10T01:08:04;98350.13;;;3.05;100.00
48077;BME280;33854;57.708;12.008;2023-02-10T01:10:29;98331.84;;;3.09;100.00
48077;BME280;33854;57.708;12.008;2023-02-10T01:13:00;98316.38;;;3.09;100.00
48077;BME280;33854;57.708;12.008;2023-02-10T01:15:25;98335.31;;;3.08;100.00
48077;BME280;33854;57.708;12.008;2023-02-10T01:17:51;98324.59;;;3.00;100.00
48077;BME280;33854;57.708;12.008;2023-02-10T01:20:17;98330.16;;;3.08;100.00
48077;BME280;33854;57.708;12.008;2023-02-10T01:22:42;98343.22;;;3.05;100.00
48077;BME280;33854;57.708;12.008;2023-02-10T01:25:08;98329.81;;;2.99;100.00
48077;BME280;33854;57.708;12.008;2023-02-10T01:27:33;98327.50;;;2.94;100.00
48077;BME280;33854;57.708;12.008;2023-02-10T01:29:59;98337.81;;;2.94;100.00
48077;BME280;33854;57.708;12.008;2023-02-10T01:32:24;98364.41;;;2.95;100.00
48077;BME280;33854;57.708;12.008;2023-02-10T01:34:50;98386.00;;;2.92;100.00
48077;BME280;33854;57.708;12.008;2023-02-10T01:37:15;98414.41;;;2.91;100.00
48077;BME280;33854;57.708;12.008;2023-02-10T01:39:41;98418.72;;;2.90;100.00
48077;BME280;33854;57.708;12.008;2023-02-10T01:42:10;98435.81;;;2.93;100.00
48077;BME280;33854;57.708;12.008;2023-02-10T01:47:02;98454.78;;;2.90;100.00
48077;BME280;33854;57.708;12.008;2023-02-10T01:49:31;98470.41;;;2.87;100.00
48077;BME280;33854;57.708;12.008;2023-02-10T01:52:08;98509.81;;;2.89;100.00
48077;BME280;33854;57.708;12.008;2023-02-10T01:54:59;98559.53;;;2.91;100.00
48077;BME280;33854;57.708;12.008;2023-02-10T01:57:27;98647.25;;;2.88;100.00
48077;BME280;33854;57.708;12.008;2023-02-10T01:59:53;98668.56;;;2.92;100.00
48077;BME280;33854;57.708;12.008;2023-02-10T02:02:19;98704.63;;;2.92;100.00
48077;BME280;33854;57.708;12.008;2023-02-10T02:07:10;98728.84;;;2.87;100.00
48077;BME280;33854;57.708;12.008;2023-02-10T02:09:36;98718.69;;;2.84;100.00
48077;BME280;33854;57.708;12.008;2023-02-10T02:12:23;98699.91;;;2.82;100.00
48077;BME280;33854;57.708;12.008;2023-02-10T02:17:45;98708.53;;;2.81;100.00
48077;BME280;33854;57.708;12.008;2023-02-10T02:20:29;98723.19;;;2.81;100.00
48077;BME280;33854;57.708;12.008;2023-02-10T02:26:40;98743.28;;;2.73;100.00
48077;BME280;33854;57.708;12.008;2023-02-10T02:29:14;98739.81;;;2.74;100.00
48077;BME280;33854;57.708;12.008;2023-02-10T02:31:57;98715.66;;;2.76;100.00
48077;BME280;33854;57.708;12.008;2023-02-10T02:35:04;98741.53;;;2.73;100.00
48077;BME280;33854;57.708;12.008;2023-02-10T02:37:37;98745.84;;;2.73;100.00
48077;BME280;33854;57.708;12.008;2023-02-10T02:40:05;98763.06;;;2.72;100.00
48077;BME280;33854;57.708;12.008;2023-02-10T02:42:32;98798.16;;;2.75;100.00
48077;BME280;33854;57.708;12.008;2023-02-10T02:45:06;98814.59;;;2.72;100.00
48077;BME280;33854;57.708;12.008;2023-02-10T02:47:56;98861.00;;;2.71;100.00
48077;BME280;33854;57.708;12.008;2023-02-10T02:53:35;98897.31;;;2.65;100.00
48077;BME280;33854;57.708;12.008;2023-02-10T02:59:11;98907.50;;;2.68;100.00
48077;BME280;33854;57.708;12.008;2023-02-10T03:01:43;98952.19;;;2.67;100.00
48077;BME280;33854;57.708;12.008;2023-02-10T03:04:13;98997.72;;;2.66;100.00
48077;BME280;33854;57.708;12.008;2023-02-10T03:06:40;98991.53;;;2.70;100.00
48077;BME280;33854;57.708;12.008;2023-02-10T03:09:06;99005.25;;;2.71;100.00
48077;BME280;33854;57.708;12.008;2023-02-10T03:11:31;98988.19;;;2.68;100.00
48077;BME280;33854;57.708;12.008;2023-02-10T03:13:57;98976.66;;;2.57;100.00
48077;BME280;33854;57.708;12.008;2023-02-10T03:16:22;98950.38;;;2.69;100.00
48077;BME280;33854;57.708;12.008;2023-02-10T03:18:47;98958.13;;;2.69;100.00
48077;BME280;33854;57.708;12.008;2023-02-10T03:21:13;98991.72;;;2.66;100.00
48077;BME280;33854;57.708;12.008;2023-02-10T03:23:38;98999.38;;;2.67;100.00
48077;BME280;33854;57.708;12.008;2023-02-10T03:26:04;99043.09;;;2.69;100.00
48077;BME280;33854;57.708;12.008;2023-02-10T03:28:30;99089.53;;;2.67;100.00
48077;BME280;33854;57.708;12.008;2023-02-10T03:30:56;99330.69;;;2.70;100.00
48077;BME280;33854;57.708;12.008;2023-02-10T03:33:22;99402.09;;;2.66;100.00
48077;BME280;33854;57.708;12.008;2023-02-10T03:35:49;99444.19;;;2.65;100.00
48077;BME280;33854;57.708;12.008;2023-02-10T03:38:15;99488.03;;;2.64;100.00
48077;BME280;33854;57.708;12.008;2023-02-10T03:40:41;99478.81;;;2.57;100.00
48077;BME280;33854;57.708;12.008;2023-02-10T03:43:06;99466.06;;;2.54;100.00
48077;BME280;33854;57.708;12.008;2023-02-10T03:45:32;99493.44;;;2.56;100.00
48077;BME280;33854;57.708;12.008;2023-02-10T03:47:57;99505.66;;;2.50;100.00
48077;BME280;33854;57.708;12.008;2023-02-10T03:50:25;99501.34;;;2.50;100.00
48077;BME280;33854;57.708;12.008;2023-02-10T03:52:51;99473.00;;;2.52;100.00
48077;BME280;33854;57.708;12.008;2023-02-10T03:55:16;99452.28;;;2.55;100.00
48077;BME280;33854;57.708;12.008;2023-02-10T03:57:44;99424.81;;;2.55;100.00
48077;BME280;33854;57.708;12.008;2023-02-10T04:00:11;99345.22;;;2.48;100.00
48077;BME280;33854;57.708;12.008;2023-02-10T04:02:37;99296.09;;;2.54;100.00
48077;BME280;33854;57.708;12.008;2023-02-10T04:05:03;99282.22;;;2.58;100.00
48077;BME280;33854;57.708;12.008;2023-02-10T04:07:28;99257.41;;;2.55;100.00
48077;BME280;33854;57.708;12.008;2023-02-10T04:09:54;99257.78;;;2.45;100.00
48077;BME280;33854;57.708;12.008;2023-02-10T04:12:19;99265.38;;;2.49;100.00
48077;BME280;33854;57.708;12.008;2023-02-10T04:14:44;99297.78;;;2.55;100.00
48077;BME280;33854;57.708;12.008;2023-02-10T04:17:10;99332.88;;;2.57;100.00
48077;BME280;33854;57.708;12.008;2023-02-10T04:19:35;99375.03;;;2.55;100.00
48077;BME280;33854;57.708;12.008;2023-02-10T04:22:01;99399.88;;;2.56;100.00
48077;BME280;33854;57.708;12.008;2023-02-10T04:24:26;99442.09;;;2.52;100.00
48077;BME280;33854;57.708;12.008;2023-02-10T04:26:53;99434.19;;;2.56;100.00
48077;BME280;33854;57.708;12.008;2023-02-10T04:29:18;99457.34;;;2.58;100.00
48077;BME280;33854;57.708;12.008;2023-02-10T04:31:43;99483.97;;;2.57;100.00
48077;BME280;33854;57.708;12.008;2023-02-10T04:34:09;99496.19;;;2.52;100.00
48077;BME280;33854;57.708;12.008;2023-02-10T04:36:34;99538.16;;;2.54;100.00
48077;BME280;33854;57.708;12.008;2023-02-10T04:39:00;99599.19;;;2.52;100.00
48077;BME280;33854;57.708;12.008;2023-02-10T04:41:25;99621.53;;;2.50;100.00
48077;BME280;33854;57.708;12.008;2023-02-10T04:43:51;99655.94;;;2.49;100.00
48077;BME280;33854;57.708;12.008;2023-02-10T04:46:16;99693.78;;;2.47;100.00
48077;BME280;33854;57.708;12.008;2023-02-10T04:48:42;99671.47;;;2.46;100.00
48077;BME280;33854;57.708;12.008;2023-02-10T04:51:09;99722.09;;;2.47;100.00
48077;BME280;33854;57.708;12.008;2023-02-10T04:53:36;99755.69;;;2.42;100.00
48077;BME280;33854;57.708;12.008;2023-02-10T04:56:01;99805.41;;;2.44;100.00
48077;BME280;33854;57.708;12.008;2023-02-10T04:58:29;99861.41;;;2.38;100.00
48077;BME280;33854;57.708;12.008;2023-02-10T05:00:55;99910.16;;;2.44;100.00
48077;BME280;33854;57.708;12.008;2023-02-10T05:03:21;99375.56;;;2.40;100.00
48077;BME280;33854;57.708;12.008;2023-02-10T05:05:46;96836.91;;;2.39;100.00
48077;BME280;33854;57.708;12.008;2023-02-10T05:08:12;97393.22;;;2.44;100.00
48077;BME280;33854;57.708;12.008;2023-02-10T05:10:38;97664.94;;;2.48;100.00
48077;BME280;33854;57.708;12.008;2023-02-10T05:13:03;97946.34;;;2.49;100.00
48077;BME280;33854;57.708;12.008;2023-02-10T05:15:29;98063.66;;;2.53;100.00
48077;BME280;33854;57.708;12.008;2023-02-10T05:17:54;98156.28;;;2.54;100.00
48077;BME280;33854;57.708;12.008;2023-02-10T05:20:20;97991.94;;;2.47;100.00
48077;BME280;33854;57.708;12.008;2023-02-10T05:22:45;98012.72;;;2.44;100.00
48077;BME280;33854;57.708;12.008;2023-02-10T05:25:11;98022.25;;;2.42;100.00
48077;BME280;33854;57.708;12.008;2023-02-10T05:27:36;98037.84;;;2.39;100.00
48077;BME280;33854;57.708;12.008;2023-02-10T05:30:04;98052.56;;;2.37;100.00
48077;BME280;33854;57.708;12.008;2023-02-10T05:32:31;98043.34;;;2.33;100.00
48077;BME280;33854;57.708;12.008;2023-02-10T05:34:57;97999.19;;;2.24;100.00
48077;BME280;33854;57.708;12.008;2023-02-10T05:37:22;97976.88;;;2.25;100.00
48077;BME280;33854;57.708;12.008;2023-02-10T05:39:48;97916.22;;;2.21;100.00
48077;BME280;33854;57.708;12.008;2023-02-10T05:42:13;97823.66;;;2.19;100.00
48077;BME280;33854;57.708;12.008;2023-02-10T05:44:39;97859.97;;;2.15;100.00
48077;BME280;33854;57.708;12.008;2023-02-10T05:47:04;97868.31;;;2.18;100.00
48077;BME280;33854;57.708;12.008;2023-02-10T05:49:29;97887.63;;;2.25;100.00
48077;BME280;33854;57.708;12.008;2023-02-10T05:51:55;97928.47;;;2.32;100.00
48077;BME280;33854;57.708;12.008;2023-02-10T05:54:20;97939.94;;;2.26;100.00
48077;BME280;33854;57.708;12.008;2023-02-10T05:56:46;97922.94;;;2.23;100.00
48077;BME280;33854;57.708;12.008;2023-02-10T05:59:12;97912.81;;;2.20;100.00
48077;BME280;33854;57.708;12.008;2023-02-10T06:01:39;97955.84;;;2.33;100.00
48077;BME280;33854;57.708;12.008;2023-02-10T06:04:05;97998.94;;;2.29;100.00
48077;BME280;33854;57.708;12.008;2023-02-10T06:06:31;97964.09;;;2.23;100.00
48077;BME280;33854;57.708;12.008;2023-02-10T06:08:56;97964.91;;;2.24;100.00
48077;BME280;33854;57.708;12.008;2023-02-10T06:11:22;97966.69;;;2.23;100.00
48077;BME280;33854;57.708;12.008;2023-02-10T06:13:47;97973.47;;;2.24;100.00
48077;BME280;33854;57.708;12.008;2023-02-10T06:16:13;97951.56;;;2.17;100.00
48077;BME280;33854;57.708;12.008;2023-02-10T06:18:38;97858.38;;;2.12;100.00
48077;BME280;33854;57.708;12.008;2023-02-10T06:21:04;97882.94;;;2.18;100.00
48077;BME280;33854;57.708;12.008;2023-02-10T06:23:30;97855.56;;;2.17;100.00
48077;BME280;33854;57.708;12.008;2023-02-10T06:25:55;97896.53;;;2.20;100.00
48077;BME280;33854;57.708;12.008;2023-02-10T06:28:27;97863.50;;;2.12;100.00
48077;BME280;33854;57.708;12.008;2023-02-10T06:30:53;97861.72;;;2.14;100.00
48077;BME280;33854;57.708;12.008;2023-02-10T06:33:19;97856.91;;;2.08;100.00
48077;BME280;33854;57.708;12.008;2023-02-10T06:35:47;97865.34;;;2.10;100.00
48077;BME280;33854;57.708;12.008;2023-02-10T06:38:13;97924.34;;;2.13;100.00
48077;BME280;33854;57.708;12.008;2023-02-10T06:40:38;97956.50;;;2.06;100.00
48077;BME280;33854;57.708;12.008;2023-02-10T06:43:04;98002.53;;;2.11;100.00
48077;BME280;33854;57.708;12.008;2023-02-10T06:45:29;98005.53;;;2.03;100.00
48077;BME280;33854;57.708;12.008;2023-02-10T06:47:55;97955.16;;;1.99;100.00
48077;BME280;33854;57.708;12.008;2023-02-10T06:50:21;97936.25;;;2.00;100.00
48077;BME280;33854;57.708;12.008;2023-02-10T06:52:47;97955.84;;;2.03;100.00
48077;BME280;33854;57.708;12.008;2023-02-10T06:55:13;97935.25;;;2.03;100.00
48077;BME280;33854;57.708;12.008;2023-02-10T06:57:38;97909.78;;;1.98;100.00
48077;BME280;33854;57.708;12.008;2023-02-10T07:00:06;97855.75;;;1.98;100.00
48077;BME280;33854;57.708;12.008;2023-02-10T07:02:34;97820.50;;;2.00;100.00
48077;BME280;33854;57.708;12.008;2023-02-10T07:04:59;97788.63;;;2.03;100.00
48077;BME280;33854;57.708;12.008;2023-02-10T07:07:25;97743.44;;;1.99;100.00
48077;BME280;33854;57.708;12.008;2023-02-10T07:09:51;97703.22;;;1.98;100.00
48077;BME280;33854;57.708;12.008;2023-02-10T07:12:19;97661.31;;;1.96;100.00
48077;BME280;33854;57.708;12.008;2023-02-10T07:14:44;97645.03;;;1.95;100.00
48077;BME280;33854;57.708;12.008;2023-02-10T07:17:10;97642.22;;;2.00;100.00
48077;BME280;33854;57.708;12.008;2023-02-10T07:19:35;97634.38;;;2.01;100.00
48077;BME280;33854;57.708;12.008;2023-02-10T07:22:01;97648.00;;;2.03;100.00
48077;BME280;33854;57.708;12.008;2023-02-10T07:24:30;97680.78;;;2.14;100.00
48077;BME280;33854;57.708;12.008;2023-02-10T07:26:56;97709.63;;;2.19;100.00
48077;BME280;33854;57.708;12.008;2023-02-10T07:29:22;97695.13;;;2.18;100.00
48077;BME280;33854;57.708;12.008;2023-02-10T07:31:48;97696.69;;;2.20;100.00
48077;BME280;33854;57.708;12.008;2023-02-10T07:34:13;97739.59;;;2.20;100.00
48077;BME280;33854;57.708;12.008;2023-02-10T07:36:38;97779.84;;;2.21;100.00
48077;BME280;33854;57.708;12.008;2023-02-10T07:39:04;97854.38;;;2.22;100.00
48077;BME280;33854;57.708;12.008;2023-02-10T07:41:29;97956.56;;;2.20;100.00
48077;BME280;33854;57.708;12.008;2023-02-10T07:43:55;98048.91;;;2.25;100.00
48077;BME280;33854;57.708;12.008;2023-02-10T07:46:20;98106.38;;;2.25;100.00
48077;BME280;33854;57.708;12.008;2023-02-10T07:48:46;98176.69;;;2.26;100.00
48077;BME280;33854;57.708;12.008;2023-02-10T07:51:11;98228.16;;;2.26;100.00
48077;BME280;33854;57.708;12.008;2023-02-10T07:53:37;98233.28;;;2.26;100.00
48077;BME280;33854;57.708;12.008;2023-02-10T07:56:03;98236.53;;;2.29;100.00
48077;BME280;33854;57.708;12.008;2023-02-10T07:58:29;98201.25;;;2.32;100.00
48077;BME280;33854;57.708;12.008;2023-02-10T08:00:55;98194.22;;;2.35;100.00
48077;BME280;33854;57.708;12.008;2023-02-10T08:03:21;98196.84;;;2.34;100.00
48077;BME280;33854;57.708;12.008;2023-02-10T08:05:46;98221.13;;;2.45;100.00
48077;BME280;33854;57.708;12.008;2023-02-10T08:08:14;98232.75;;;2.52;100.00
48077;BME280;33854;57.708;12.008;2023-02-10T08:10:40;98211.50;;;2.49;100.00
48077;BME280;33854;57.708;12.008;2023-02-10T08:13:06;98208.09;;;2.64;100.00
48077;BME280;33854;57.708;12.008;2023-02-10T08:15:32;98224.13;;;2.69;100.00
48077;BME280;33854;57.708;12.008;2023-02-10T08:17:59;98226.88;;;2.66;100.00
48077;BME280;33854;57.708;12.008;2023-02-10T08:20:24;98230.91;;;2.70;100.00
48077;BME280;33854;57.708;12.008;2023-02-10T08:22:54;98221.38;;;2.72;100.00
48077;BME280;33854;57.708;12.008;2023-02-10T08:25:20;98261.50;;;2.76;100.00
48077;BME280;33854;57.708;12.008;2023-02-10T08:27:46;98281.31;;;2.75;100.00
48077;BME280;33854;57.708;12.008;2023-02-10T08:30:11;98401.78;;;2.86;100.00
48077;BME280;33854;57.708;12.008;2023-02-10T08:32:37;98460.44;;;2.81;100.00
48077;BME280;33854;57.708;12.008;2023-02-10T08:35:03;98511.41;;;2.92;100.00
48077;BME280;33854;57.708;12.008;2023-02-10T08:37:28;98540.28;;;2.98;100.00
48077;BME280;33854;57.708;12.008;2023-02-10T08:39:54;98594.25;;;3.01;100.00
48077;BME280;33854;57.708;12.008;2023-02-10T08:42:19;98660.91;;;3.07;100.00
48077;BME280;33854;57.708;12.008;2023-02-10T08:44:45;98682.31;;;3.09;100.00
48077;BME280;33854;57.708;12.008;2023-02-10T08:47:10;98782.59;;;3.14;100.00
48077;BME280;33854;57.708;12.008;2023-02-10T08:49:39;98890.66;;;3.18;100.00
48077;BME280;33854;57.708;12.008;2023-02-10T08:52:04;98973.91;;;3.20;100.00
48077;BME280;33854;57.708;12.008;2023-02-10T08:54:30;99034.72;;;3.24;100.00
48077;BME280;33854;57.708;12.008;2023-02-10T08:56:55;99094.81;;;3.26;100.00
48077;BME280;33854;57.708;12.008;2023-02-10T08:59:21;99100.59;;;3.31;100.00
48077;BME280;33854;57.708;12.008;2023-02-10T09:01:47;99141.72;;;3.34;100.00
48077;BME280;33854;57.708;12.008;2023-02-10T09:04:12;99176.00;;;3.36;100.00
48077;BME280;33854;57.708;12.008;2023-02-10T09:06:40;99233.53;;;3.38;100.00
48077;BME280;33854;57.708;12.008;2023-02-10T09:09:12;99265.13;;;3.43;100.00
48077;BME280;33854;57.708;12.008;2023-02-10T09:11:38;99330.34;;;3.47;100.00
48077;BME280;33854;57.708;12.008;2023-02-10T09:14:03;99466.22;;;3.45;100.00
48077;BME280;33854;57.708;12.008;2023-02-10T09:16:29;99540.78;;;3.51;100.00
48077;BME280;33854;57.708;12.008;2023-02-10T09:18:54;99591.31;;;3.57;100.00
48077;BME280;33854;57.708;12.008;2023-02-10T09:21:20;99589.66;;;3.56;100.00
48077;BME280;33854;57.708;12.008;2023-02-10T09:23:45;99629.78;;;3.64;100.00
48077;BME280;33854;57.708;12.008;2023-02-10T09:26:11;99626.28;;;3.65;100.00
48077;BME280;33854;57.708;12.008;2023-02-10T09:28:37;99644.97;;;3.72;100.00
48077;BME280;33854;57.708;12.008;2023-02-10T09:31:06;99654.31;;;3.76;100.00
48077;BME280;33854;57.708;12.008;2023-02-10T09:33:32;99662.75;;;3.79;100.00
48077;BME280;33854;57.708;12.008;2023-02-10T09:35:57;99683.19;;;3.85;100.00
48077;BME280;33854;57.708;12.008;2023-02-10T09:38:23;99708.25;;;3.82;100.00
48077;BME280;33854;57.708;12.008;2023-02-10T09:52:42;100025.63;;;4.13;100.00
48077;BME280;33854;57.708;12.008;2023-02-10T09:55:37;100079.91;;;4.11;100.00
48077;BME280;33854;57.708;12.008;2023-02-10T09:58:51;100048.91;;;4.11;100.00
48077;BME280;33854;57.708;12.008;2023-02-10T10:00:56;100011.53;;;4.23;100.00
48077;BME280;33854;57.708;12.008;2023-02-10T10:03:30;99982.06;;;4.28;100.00
48077;BME280;33854;57.708;12.008;2023-02-10T10:11:42;99930.97;;;4.38;100.00
48077;BME280;33854;57.708;12.008;2023-02-10T10:14:26;99953.56;;;4.31;100.00
48077;BME280;33854;57.708;12.008;2023-02-10T10:22:37;99926.84;;;4.32;100.00
48077;BME280;33854;57.708;12.008;2023-02-10T10:25:25;99938.53;;;4.44;100.00
48077;BME280;33854;57.708;12.008;2023-02-10T10:30:46;100067.25;;;4.57;100.00
48077;BME280;33854;57.708;12.008;2023-02-10T10:35:49;100055.56;;;4.46;100.00
48077;BME280;33854;57.708;12.008;2023-02-10T10:38:19;100011.28;;;4.56;100.00
48077;BME280;33854;57.708;12.008;2023-02-10T10:40:47;100030.19;;;4.58;100.00
48077;BME280;33854;57.708;12.008;2023-02-10T10:43:19;100034.94;;;4.71;100.00
48077;BME280;33854;57.708;12.008;2023-02-10T10:45:50;100045.25;;;4.72;100.00
48077;BME280;33854;57.708;12.008;2023-02-10T10:48:25;100014.69;;;4.58;100.00
48077;BME280;33854;57.708;12.008;2023-02-10T10:50:57;100003.81;;;4.74;100.00
48077;BME280;33854;57.708;12.008;2023-02-10T10:55:53;99955.75;;;4.68;100.00
48077;BME280;33854;57.708;12.008;2023-02-10T10:58:35;99880.69;;;4.71;100.00
48077;BME280;33854;57.708;12.008;2023-02-10T11:01:02;99854.28;;;4.63;100.00
48077;BME280;33854;57.708;12.008;2023-02-10T11:03:29;99830.28;;;4.59;100.00
48077;BME280;33854;57.708;12.008;2023-02-10T11:06:06;99823.19;;;4.66;100.00
48077;BME280;33854;57.708;12.008;2023-02-10T11:08:54;99810.78;;;4.76;100.00
48077;BME280;33854;57.708;12.008;2023-02-10T11:11:37;99857.28;;;4.76;100.00
48077;BME280;33854;57.708;12.008;2023-02-10T11:14:13;99833.13;;;4.77;100.00
48077;BME280;33854;57.708;12.008;2023-02-10T11:16:45;99814.66;;;4.87;100.00
48077;BME280;33854;57.708;12.008;2023-02-10T11:19:20;99870.59;;;4.88;100.00
48077;BME280;33854;57.708;12.008;2023-02-10T11:21:46;99887.41;;;4.77;100.00
48077;BME280;33854;57.708;12.008;2023-02-10T11:24:47;99871.41;;;4.90;100.00
48077;BME280;33854;57.708;12.008;2023-02-10T11:27:14;99894.50;;;4.95;100.00
48077;BME280;33854;57.708;12.008;2023-02-10T11:29:52;99924.09;;;4.86;100.00
48077;BME280;33854;57.708;12.008;2023-02-10T11:32:23;99870.72;;;4.85;100.00
48077;BME280;33854;57.708;12.008;2023-02-10T11:34:51;99847.34;;;4.88;100.00
48077;BME280;33854;57.708;12.008;2023-02-10T11:37:30;99791.41;;;4.86;100.00
48077;BME280;33854;57.708;12.008;2023-02-10T11:39:58;99795.25;;;4.99;100.00
48077;BME280;33854;57.708;12.008;2023-02-10T11:42:30;99795.34;;;4.96;100.00
48077;BME280;33854;57.708;12.008;2023-02-10T11:45:28;99816.31;;;4.88;100.00
48077;BME280;33854;57.708;12.008;2023-02-10T11:50:32;99742.06;;;4.92;100.00
48077;BME280;33854;57.708;12.008;2023-02-10T11:52:58;99709.31;;;4.92;100.00
48077;BME280;33854;57.708;12.008;2023-02-10T11:55:47;99656.63;;;4.95;100.00
48077;BME280;33854;57.708;12.008;2023-02-10T12:04:18;98985.69;;;4.71;100.00
48077;BME280;33854;57.708;12.008;2023-02-10T12:12:26;98524.63;;;4.60;100.00
48077;BME280;33854;57.708;12.008;2023-02-10T12:15:07;98400.63;;;4.60;100.00
48077;BME280;33854;57.708;12.008;2023-02-10T12:21:14;98239.81;;;4.71;100.00
48077;BME280;33854;57.708;12.008;2023-02-10T12:26:50;98350.72;;;4.74;100.00
48077;BME280;33854;57.708;12.008;2023-02-10T12:37:18;98603.69;;;4.79;100.00
48077;BME280;33854;57.708;12.008;2023-02-10T12:42:43;98482.94;;;4.67;100.00
48077;BME280;33854;57.708;12.008;2023-02-10T12:45:23;98843.03;;;4.31;100.00
48077;BME280;33854;57.708;12.008;2023-02-10T12:48:17;99188.03;;;4.35;100.00
48077;BME280;33854;57.708;12.008;2023-02-10T12:53:25;99068.19;;;4.56;100.00
48077;BME280;33854;57.708;12.008;2023-02-10T12:55:59;98898.09;;;4.49;100.00
48077;BME280;33854;57.708;12.008;2023-02-10T12:58:30;98791.03;;;4.54;100.00
48077;BME280;33854;57.708;12.008;2023-02-10T13:01:13;98756.72;;;4.52;100.00
48077;BME280;33854;57.708;12.008;2023-02-10T13:03:44;98718.78;;;4.37;100.00
48077;BME280;33854;57.708;12.008;2023-02-10T13:08:40;98475.34;;;4.34;100.00
48077;BME280;33854;57.708;12.008;2023-02-10T13:11:19;98308.06;;;4.25;100.00
48077;BME280;33854;57.708;12.008;2023-02-10T13:13:47;98087.09;;;4.08;100.00
48077;BME280;33854;57.708;12.008;2023-02-10T13:16:20;97782.44;;;3.97;100.00
48077;BME280;33854;57.708;12.008;2023-02-10T13:18:52;97139.09;;;3.76;100.00
48077;BME280;33854;57.708;12.008;2023-02-10T13:21:56;96830.22;;;3.68;100.00
48077;BME280;33854;57.708;12.008;2023-02-10T13:24:24;96519.84;;;3.60;100.00
48077;BME280;33854;57.708;12.008;2023-02-10T13:27:06;96336.44;;;3.64;100.00
48077;BME280;33854;57.708;12.008;2023-02-10T13:29:55;96208.50;;;3.73;100.00
48077;BME280;33854;57.708;12.008;2023-02-10T13:35:20;95898.41;;;3.53;100.00
48077;BME280;33854;57.708;12.008;2023-02-10T13:37:55;95734.50;;;3.42;100.00
48077;BME280;33854;57.708;12.008;2023-02-10T13:40:28;95430.75;;;3.31;100.00
48077;BME280;33854;57.708;12.008;2023-02-10T13:42:58;95347.66;;;3.21;100.00
48077;BME280;33854;57.708;12.008;2023-02-10T13:45:29;95241.56;;;3.10;100.00
48077;BME280;33854;57.708;12.008;2023-02-10T13:48:01;95203.91;;;3.09;100.00
48077;BME280;33854;57.708;12.008;2023-02-10T13:50:57;95173.63;;;2.95;100.00
48077;BME280;33854;57.708;12.008;2023-02-10T14:04:45;95801.25;;;2.64;100.00
48077;BME280;33854;57.708;12.008;2023-02-10T14:07:32;96148.50;;;2.56;100.00
48077;BME280;33854;57.708;12.008;2023-02-10T14:12:58;97125.28;;;2.49;100.00
48077;BME280;33854;57.708;12.008;2023-02-10T14:15:36;97419.09;;;2.43;100.00
48077;BME280;33854;57.708;12.008;2023-02-10T14:18:26;97697.22;;;2.40;100.00
48077;BME280;33854;57.708;12.008;2023-02-10T14:21:10;97915.59;;;2.32;100.00
48077;BME280;33854;57.708;12.008;2023-02-10T14:23:39;97852.72;;;2.36;100.00
48077;BME280;33854;57.708;12.008;2023-02-10T14:26:08;98258.78;;;2.30;100.00
48077;BME280;33854;57.708;12.008;2023-02-10T14:28:41;98360.22;;;2.26;100.00
48077;BME280;33854;57.708;12.008;2023-02-10T14:31:33;98449.03;;;2.35;100.00
48077;BME280;33854;57.708;12.008;2023-02-10T14:34:03;98538.41;;;2.32;100.00
48077;BME280;33854;57.708;12.008;2023-02-10T14:36:29;98610.47;;;2.32;100.00
48077;BME280;33854;57.708;12.008;2023-02-10T14:38:58;98661.19;;;2.29;100.00
48077;BME280;33854;57.708;12.008;2023-02-10T14:41:26;98688.53;;;2.32;100.00
48077;BME280;33854;57.708;12.008;2023-02-10T14:43:52;98725.75;;;2.44;100.00